sensor_id;sensor_type;location;lat;lon;timestamp;pressure;altitude;pressure_sealevel;temperature;humidity
4012;BME280;2020;48.682;9.024;2023-05-20T00:00:27;96535.72;;;10.21;87.47
4012;BME280;2020;48.682;9.024;2023-05-20T00:02:53;96540.41;;;10.17;87.26
4012;BME280;2020;48.682;9.024;2023-05-20T00:05:18;96538.09;;;10.14;87.35
4012;BME280;2020;48.682;9.024;2023-05-20T00:07:43;96543.44;;;10.13;87.53
4012;BME280;2020;48.682;9.024;2023-05-20T00:10:09;96541.81;;;10.12;88.25
4012;BME280;2020;48.682;9.024;2023-05-20T00:12:37;96535.66;;;10.13;87.42
4012;BME280;2020;48.682;9.024;2023-05-20T00:15:03;96534.84;;;10.12;86.53
4012;BME280;2020;48.682;9.024;2023-05-20T00:17:29;96539.06;;;10.13;86.74
4012;BME280;2020;48.682;9.024;2023-05-20T00:19:54;96532.53;;;10.09;87.37
4012;BME280;2020;48.682;9.024;2023-05-20T00:22:20;96535.81;;;10.11;87.58
4012;BME280;2020;48.682;9.024;2023-05-20T00:24:45;96527.34;;;10.09;87.42
4012;BME280;2020;48.682;9.024;2023-05-20T00:27:11;96523.91;;;10.08;87.66
4012;BME280;2020;48.682;9.024;2023-05-20T00:29:36;96523.78;;;10.10;87.64
4012;BME280;2020;48.682;9.024;2023-05-20T00:32:01;96526.50;;;10.08;88.17
4012;BME280;2020;48.682;9.024;2023-05-20T00:34:26;96525.41;;;10.11;87.82
4012;BME280;2020;48.682;9.024;2023-05-20T00:36:52;96524.56;;;10.10;87.38
4012;BME280;2020;48.682;9.024;2023-05-20T00:39:18;96522.63;;;10.13;88.22
4012;BME280;2020;48.682;9.024;2023-05-20T00:41:43;96521.22;;;10.18;87.97
4012;BME280;2020;48.682;9.024;2023-05-20T00:44:08;96522.88;;;10.19;87.23
4012;BME280;2020;48.682;9.024;2023-05-20T00:46:34;96530.00;;;10.17;87.05
4012;BME280;2020;48.682;9.024;2023-05-20T00:49:00;96519.78;;;10.24;86.62
4012;BME280;2020;48.682;9.024;2023-05-20T00:51:25;96520.81;;;10.31;86.84
4012;BME280;2020;48.682;9.024;2023-05-20T00:53:51;96529.16;;;10.35;85.79
4012;BME280;2020;48.682;9.024;2023-05-20T00:56:16;96524.63;;;10.37;85.95
4012;BME280;2020;48.682;9.024;2023-05-20T00:58:43;96519.41;;;10.37;86.19
4012;BME280;2020;48.682;9.024;2023-05-20T01:01:08;96520.75;;;10.41;85.83
4012;BME280;2020;48.682;9.024;2023-05-20T01:03:33;96522.41;;;10.42;85.72
4012;BME280;2020;48.682;9.024;2023-05-20T01:05:59;96513.94;;;10.40;85.72
4012;BME280;2020;48.682;9.024;2023-05-20T01:08:25;96512.00;;;10.42;86.12
4012;BME280;2020;48.682;9.024;2023-05-20T01:13:34;96508.09;;;10.46;85.45
4012;BME280;2020;48.682;9.024;2023-05-20T01:16:02;96507.81;;;10.49;85.27
4012;BME280;2020;48.682;9.024;2023-05-20T01:18:29;96508.78;;;10.48;85.69
4012;BME280;2020;48.682;9.024;2023-05-20T01:20:56;96504.22;;;10.50;85.92
4012;BME280;2020;48.682;9.024;2023-05-20T01:23:32;96501.28;;;10.45;85.79
4012;BME280;2020;48.682;9.024;2023-05-20T01:25:57;96504.69;;;10.46;85.72
4012;BME280;2020;48.682;9.024;2023-05-20T01:28:22;96504.84;;;10.44;86.11
4012;BME280;2020;48.682;9.024;2023-05-20T01:30:51;96506.47;;;10.45;86.71
4012;BME280;2020;48.682;9.024;2023-05-20T01:33:19;96502.38;;;10.43;86.47
4012;BME280;2020;48.682;9.024;2023-05-20T01:35:47;96498.00;;;10.43;86.89
4012;BME280;2020;48.682;9.024;2023-05-20T01:38:14;96495.25;;;10.45;86.83
4012;BME280;2020;48.682;9.024;2023-05-20T01:40:41;96493.59;;;10.44;87.06
4012;BME280;2020;48.682;9.024;2023-05-20T01:43:07;96489.22;;;10.44;86.55
4012;BME280;2020;48.682;9.024;2023-05-20T01:45:33;96491.66;;;10.46;86.37
4012;BME280;2020;48.682;9.024;2023-05-20T01:47:58;96491.53;;;10.47;86.94
4012;BME280;2020;48.682;9.024;2023-05-20T01:50:25;96495.25;;;10.45;87.32
4012;BME280;2020;48.682;9.024;2023-05-20T01:52:50;96498.59;;;10.37;87.28
4012;BME280;2020;48.682;9.024;2023-05-20T01:55:16;96494.19;;;10.37;87.25
4012;BME280;2020;48.682;9.024;2023-05-20T01:57:41;96491.00;;;10.44;87.28
4012;BME280;2020;48.682;9.024;2023-05-20T02:00:07;96487.59;;;10.43;87.14
4012;BME280;2020;48.682;9.024;2023-05-20T02:02:33;96491.16;;;10.42;87.06
4012;BME280;2020;48.682;9.024;2023-05-20T02:04:58;96487.91;;;10.40;87.65
4012;BME280;2020;48.682;9.024;2023-05-20T02:07:24;96485.00;;;10.43;86.76
4012;BME280;2020;48.682;9.024;2023-05-20T02:09:49;96480.16;;;10.48;87.29
4012;BME280;2020;48.682;9.024;2023-05-20T02:12:14;96486.16;;;10.49;87.44
4012;BME280;2020;48.682;9.024;2023-05-20T02:14:43;96485.31;;;10.40;87.58
4012;BME280;2020;48.682;9.024;2023-05-20T02:17:09;96490.88;;;10.45;87.69
4012;BME280;2020;48.682;9.024;2023-05-20T02:19:35;96486.31;;;10.47;87.25
4012;BME280;2020;48.682;9.024;2023-05-20T02:22:00;96488.63;;;10.50;87.55
4012;BME280;2020;48.682;9.024;2023-05-20T02:24:25;96493.00;;;10.50;87.47
4012;BME280;2020;48.682;9.024;2023-05-20T02:26:51;96488.09;;;10.47;87.58
4012;BME280;2020;48.682;9.024;2023-05-20T02:29:18;96487.28;;;10.46;87.42
4012;BME280;2020;48.682;9.024;2023-05-20T02:31:46;96489.53;;;10.41;87.66
4012;BME280;2020;48.682;9.024;2023-05-20T02:34:11;96492.28;;;10.39;88.26
4012;BME280;2020;48.682;9.024;2023-05-20T02:36:36;96489.22;;;10.44;88.10
4012;BME280;2020;48.682;9.024;2023-05-20T02:39:02;96488.09;;;10.47;87.97
4012;BME280;2020;48.682;9.024;2023-05-20T02:41:27;96492.50;;;10.46;87.85
4012;BME280;2020;48.682;9.024;2023-05-20T02:43:52;96483.72;;;10.47;88.07
4012;BME280;2020;48.682;9.024;2023-05-20T02:46:18;96485.34;;;10.48;87.35
4012;BME280;2020;48.682;9.024;2023-05-20T02:48:44;96492.19;;;10.49;87.70
4012;BME280;2020;48.682;9.024;2023-05-20T02:51:09;96485.59;;;10.37;87.96
4012;BME280;2020;48.682;9.024;2023-05-20T02:53:35;96491.44;;;10.39;88.25
4012;BME280;2020;48.682;9.024;2023-05-20T02:56:02;96483.78;;;10.37;88.66
4012;BME280;2020;48.682;9.024;2023-05-20T02:58:28;96486.03;;;10.32;89.40
4012;BME280;2020;48.682;9.024;2023-05-20T03:00:53;96492.50;;;10.28;89.32
4012;BME280;2020;48.682;9.024;2023-05-20T03:03:18;96494.00;;;10.31;89.44
4012;BME280;2020;48.682;9.024;2023-05-20T03:05:44;96495.94;;;10.29;89.58
4012;BME280;2020;48.682;9.024;2023-05-20T03:08:10;96488.88;;;10.21;90.00
4012;BME280;2020;48.682;9.024;2023-05-20T03:10:39;96483.19;;;10.17;90.53
4012;BME280;2020;48.682;9.024;2023-05-20T03:13:05;96488.53;;;10.16;90.47
4012;BME280;2020;48.682;9.024;2023-05-20T03:15:38;96489.00;;;10.11;90.73
4012;BME280;2020;48.682;9.024;2023-05-20T03:18:04;96484.41;;;10.05;91.39
4012;BME280;2020;48.682;9.024;2023-05-20T03:20:30;96489.31;;;10.08;91.48
4012;BME280;2020;48.682;9.024;2023-05-20T03:22:56;96488.34;;;10.09;90.71
4012;BME280;2020;48.682;9.024;2023-05-20T03:25:23;96480.16;;;10.04;91.05
4012;BME280;2020;48.682;9.024;2023-05-20T03:27:48;96480.31;;;10.02;91.21
4012;BME280;2020;48.682;9.024;2023-05-20T03:30:14;96478.97;;;9.98;91.59
4012;BME280;2020;48.682;9.024;2023-05-20T03:32:39;96480.13;;;9.95;92.10
4012;BME280;2020;48.682;9.024;2023-05-20T03:35:05;96482.53;;;9.97;92.11
4012;BME280;2020;48.682;9.024;2023-05-20T03:37:31;96482.00;;;9.93;92.78
4012;BME280;2020;48.682;9.024;2023-05-20T03:39:56;96486.13;;;9.96;92.76
4012;BME280;2020;48.682;9.024;2023-05-20T03:42:21;96485.97;;;9.98;93.15
4012;BME280;2020;48.682;9.024;2023-05-20T03:44:46;96482.41;;;9.99;93.26
4012;BME280;2020;48.682;9.024;2023-05-20T03:47:12;96484.72;;;10.02;93.03
4012;BME280;2020;48.682;9.024;2023-05-20T03:49:37;96484.03;;;10.00;92.84
4012;BME280;2020;48.682;9.024;2023-05-20T03:52:04;96495.72;;;9.95;93.37
4012;BME280;2020;48.682;9.024;2023-05-20T03:54:29;96493.38;;;9.92;93.59
4012;BME280;2020;48.682;9.024;2023-05-20T03:56:55;96489.16;;;9.91;93.79
4012;BME280;2020;48.682;9.024;2023-05-20T03:59:20;96488.88;;;9.94;94.10
4012;BME280;2020;48.682;9.024;2023-05-20T04:01:46;96492.72;;;9.90;94.13
4012;BME280;2020;48.682;9.024;2023-05-20T04:04:11;96487.81;;;9.87;94.26
4012;BME280;2020;48.682;9.024;2023-05-20T04:06:37;96486.50;;;9.83;95.37
4012;BME280;2020;48.682;9.024;2023-05-20T04:09:02;96483.44;;;9.88;95.01
4012;BME280;2020;48.682;9.024;2023-05-20T04:11:27;96480.91;;;9.96;95.01
4012;BME280;2020;48.682;9.024;2023-05-20T04:13:53;96482.41;;;9.99;94.96
4012;BME280;2020;48.682;9.024;2023-05-20T04:16:18;96488.78;;;10.04;94.90
4012;BME280;2020;48.682;9.024;2023-05-20T04:18:44;96485.72;;;10.09;94.93
4012;BME280;2020;48.682;9.024;2023-05-20T04:21:10;96489.00;;;10.11;94.73
4012;BME280;2020;48.682;9.024;2023-05-20T04:23:35;96482.16;;;10.10;94.59
4012;BME280;2020;48.682;9.024;2023-05-20T04:26:00;96481.19;;;10.11;94.81
4012;BME280;2020;48.682;9.024;2023-05-20T04:28:27;96482.53;;;10.15;95.02
4012;BME280;2020;48.682;9.024;2023-05-20T04:31:01;96470.78;;;10.11;94.49
4012;BME280;2020;48.682;9.024;2023-05-20T04:33:28;96473.88;;;10.15;95.11
4012;BME280;2020;48.682;9.024;2023-05-20T04:35:54;96471.47;;;10.13;94.82
4012;BME280;2020;48.682;9.024;2023-05-20T04:38:23;96476.97;;;10.10;94.81
4012;BME280;2020;48.682;9.024;2023-05-20T04:40:54;96473.09;;;10.14;95.54
4012;BME280;2020;48.682;9.024;2023-05-20T04:43:22;96471.81;;;10.18;95.04
4012;BME280;2020;48.682;9.024;2023-05-20T04:45:47;96468.91;;;10.21;94.88
4012;BME280;2020;48.682;9.024;2023-05-20T04:48:12;96472.16;;;10.23;94.69
4012;BME280;2020;48.682;9.024;2023-05-20T04:50:38;96473.50;;;10.28;94.96
4012;BME280;2020;48.682;9.024;2023-05-20T04:53:04;96469.94;;;10.29;94.99
4012;BME280;2020;48.682;9.024;2023-05-20T04:55:29;96471.56;;;10.30;94.82
4012;BME280;2020;48.682;9.024;2023-05-20T04:57:56;96472.22;;;10.32;95.08
4012;BME280;2020;48.682;9.024;2023-05-20T05:00:21;96470.94;;;10.36;94.61
4012;BME280;2020;48.682;9.024;2023-05-20T05:02:47;96479.13;;;10.41;95.10
4012;BME280;2020;48.682;9.024;2023-05-20T05:05:12;96476.22;;;10.44;94.05
4012;BME280;2020;48.682;9.024;2023-05-20T05:07:38;96482.09;;;10.46;94.22
4012;BME280;2020;48.682;9.024;2023-05-20T05:10:03;96478.81;;;10.44;94.19
4012;BME280;2020;48.682;9.024;2023-05-20T05:12:28;96478.81;;;10.44;94.40
4012;BME280;2020;48.682;9.024;2023-05-20T05:14:54;96474.63;;;10.51;94.44
4012;BME280;2020;48.682;9.024;2023-05-20T05:17:19;96471.56;;;10.56;93.95
4012;BME280;2020;48.682;9.024;2023-05-20T05:19:44;96455.84;;;10.66;93.96
4012;BME280;2020;48.682;9.024;2023-05-20T05:22:09;96453.56;;;10.71;94.27
4012;BME280;2020;48.682;9.024;2023-05-20T05:24:35;96443.16;;;10.71;93.51
4012;BME280;2020;48.682;9.024;2023-05-20T05:27:00;96452.94;;;10.77;93.88
4012;BME280;2020;48.682;9.024;2023-05-20T05:29:25;96457.84;;;10.80;93.55
4012;BME280;2020;48.682;9.024;2023-05-20T05:31:50;96450.69;;;10.82;93.39
4012;BME280;2020;48.682;9.024;2023-05-20T05:34:16;96455.25;;;10.89;93.23
4012;BME280;2020;48.682;9.024;2023-05-20T05:36:41;96454.50;;;10.96;92.94
4012;BME280;2020;48.682;9.024;2023-05-20T05:39:06;96444.91;;;11.05;92.99
4012;BME280;2020;48.682;9.024;2023-05-20T05:41:32;96435.47;;;11.12;92.45
4012;BME280;2020;48.682;9.024;2023-05-20T05:43:58;96437.78;;;11.24;92.71
4012;BME280;2020;48.682;9.024;2023-05-20T05:46:23;96445.31;;;11.27;91.77
4012;BME280;2020;48.682;9.024;2023-05-20T05:48:49;96438.16;;;11.37;91.87
4012;BME280;2020;48.682;9.024;2023-05-20T05:51:15;96435.88;;;11.43;90.72
4012;BME280;2020;48.682;9.024;2023-05-20T05:53:40;96431.97;;;11.47;90.56
4012;BME280;2020;48.682;9.024;2023-05-20T05:56:05;96440.13;;;11.52;89.63
4012;BME280;2020;48.682;9.024;2023-05-20T05:58:31;96437.19;;;11.72;89.56
4012;BME280;2020;48.682;9.024;2023-05-20T06:00:57;96442.06;;;11.83;89.37
4012;BME280;2020;48.682;9.024;2023-05-20T06:03:22;96440.44;;;11.90;88.63
4012;BME280;2020;48.682;9.024;2023-05-20T06:05:48;96443.69;;;11.84;87.29
4012;BME280;2020;48.682;9.024;2023-05-20T06:08:13;96433.59;;;11.81;87.87
4012;BME280;2020;48.682;9.024;2023-05-20T06:10:38;96440.78;;;11.70;87.82
4012;BME280;2020;48.682;9.024;2023-05-20T06:13:04;96439.78;;;11.80;88.81
4012;BME280;2020;48.682;9.024;2023-05-20T06:15:29;96441.41;;;11.89;88.56
4012;BME280;2020;48.682;9.024;2023-05-20T06:17:55;96437.81;;;11.98;87.83
4012;BME280;2020;48.682;9.024;2023-05-20T06:20:20;96442.72;;;11.93;87.51
4012;BME280;2020;48.682;9.024;2023-05-20T06:22:45;96438.81;;;12.06;87.91
4012;BME280;2020;48.682;9.024;2023-05-20T06:25:10;96433.59;;;12.14;87.18
4012;BME280;2020;48.682;9.024;2023-05-20T06:27:36;96446.16;;;12.19;87.69
4012;BME280;2020;48.682;9.024;2023-05-20T06:30:01;96430.00;;;12.15;87.11
4012;BME280;2020;48.682;9.024;2023-05-20T06:32:27;96432.91;;;12.20;86.89
4012;BME280;2020;48.682;9.024;2023-05-20T06:34:52;96431.28;;;12.19;86.97
4012;BME280;2020;48.682;9.024;2023-05-20T06:37:17;96427.66;;;12.37;87.61
4012;BME280;2020;48.682;9.024;2023-05-20T06:39:42;96422.94;;;12.40;86.80
4012;BME280;2020;48.682;9.024;2023-05-20T06:42:08;96420.13;;;12.42;85.65
4012;BME280;2020;48.682;9.024;2023-05-20T06:44:33;96428.66;;;12.27;85.99
4012;BME280;2020;48.682;9.024;2023-05-20T06:46:58;96419.19;;;12.35;85.73
4012;BME280;2020;48.682;9.024;2023-05-20T06:49:24;96420.97;;;12.42;85.53
4012;BME280;2020;48.682;9.024;2023-05-20T06:51:49;96410.97;;;12.63;84.60
4012;BME280;2020;48.682;9.024;2023-05-20T06:54:14;96413.19;;;12.74;84.25
4012;BME280;2020;48.682;9.024;2023-05-20T06:56:39;96414.47;;;12.78;84.29
4012;BME280;2020;48.682;9.024;2023-05-20T06:59:05;96413.75;;;12.93;84.34
4012;BME280;2020;48.682;9.024;2023-05-20T07:01:30;96401.53;;;13.16;83.31
4012;BME280;2020;48.682;9.024;2023-05-20T07:03:55;96408.47;;;13.24;82.64
4012;BME280;2020;48.682;9.024;2023-05-20T07:06:21;96408.56;;;13.39;82.02
4012;BME280;2020;48.682;9.024;2023-05-20T07:08:46;96409.16;;;13.50;80.52
4012;BME280;2020;48.682;9.024;2023-05-20T07:11:12;96402.03;;;13.12;80.14
4012;BME280;2020;48.682;9.024;2023-05-20T07:13:37;96390.72;;;13.20;81.42
4012;BME280;2020;48.682;9.024;2023-05-20T07:16:02;96393.56;;;13.33;81.41
4012;BME280;2020;48.682;9.024;2023-05-20T07:18:28;96389.72;;;13.52;80.53
4012;BME280;2020;48.682;9.024;2023-05-20T07:20:53;96390.91;;;13.41;79.61
4012;BME280;2020;48.682;9.024;2023-05-20T07:23:20;96391.44;;;13.60;80.40
4012;BME280;2020;48.682;9.024;2023-05-20T07:25:46;96389.66;;;13.75;78.08
4012;BME280;2020;48.682;9.024;2023-05-20T07:28:11;96388.03;;;13.74;78.67
4012;BME280;2020;48.682;9.024;2023-05-20T07:30:36;96392.34;;;13.67;78.59
4012;BME280;2020;48.682;9.024;2023-05-20T07:33:02;96399.69;;;13.49;78.79
4012;BME280;2020;48.682;9.024;2023-05-20T07:35:27;96392.69;;;13.49;79.65
4012;BME280;2020;48.682;9.024;2023-05-20T07:37:52;96396.38;;;13.55;80.14
4012;BME280;2020;48.682;9.024;2023-05-20T07:40:17;96391.44;;;13.60;79.11
4012;BME280;2020;48.682;9.024;2023-05-20T07:42:43;96386.75;;;14.09;79.81
4012;BME280;2020;48.682;9.024;2023-05-20T07:45:08;96381.97;;;14.27;79.44
4012;BME280;2020;48.682;9.024;2023-05-20T07:47:34;96381.97;;;14.27;77.85
4012;BME280;2020;48.682;9.024;2023-05-20T07:49:59;96377.81;;;14.18;77.17
4012;BME280;2020;48.682;9.024;2023-05-20T07:52:25;96377.56;;;14.13;76.33
4012;BME280;2020;48.682;9.024;2023-05-20T07:54:50;96381.97;;;14.27;76.20
4012;BME280;2020;48.682;9.024;2023-05-20T07:57:15;96373.66;;;14.39;75.75
4012;BME280;2020;48.682;9.024;2023-05-20T07:59:40;96378.34;;;14.58;75.04
4012;BME280;2020;48.682;9.024;2023-05-20T08:02:06;96369.03;;;14.56;74.47
4012;BME280;2020;48.682;9.024;2023-05-20T08:04:32;96373.47;;;14.55;74.41
4012;BME280;2020;48.682;9.024;2023-05-20T08:06:57;96364.81;;;14.70;74.41
4012;BME280;2020;48.682;9.024;2023-05-20T08:09:22;96366.06;;;14.74;73.87
4012;BME280;2020;48.682;9.024;2023-05-20T08:11:48;96370.94;;;14.77;73.22
4012;BME280;2020;48.682;9.024;2023-05-20T08:14:13;96378.34;;;14.58;73.71
4012;BME280;2020;48.682;9.024;2023-05-20T08:16:38;96381.69;;;14.37;72.82
4012;BME280;2020;48.682;9.024;2023-05-20T08:19:03;96389.00;;;14.42;73.57
4012;BME280;2020;48.682;9.024;2023-05-20T08:21:29;96397.13;;;14.47;74.27
4012;BME280;2020;48.682;9.024;2023-05-20T08:23:54;96383.69;;;14.50;73.74
4012;BME280;2020;48.682;9.024;2023-05-20T08:26:19;96398.22;;;14.38;74.50
4012;BME280;2020;48.682;9.024;2023-05-20T08:28:46;96397.41;;;14.52;74.43
4012;BME280;2020;48.682;9.024;2023-05-20T08:31:12;96393.53;;;14.48;71.71
4012;BME280;2020;48.682;9.024;2023-05-20T08:33:37;96398.41;;;14.51;72.37
4012;BME280;2020;48.682;9.024;2023-05-20T08:36:03;96392.78;;;14.54;71.83
4012;BME280;2020;48.682;9.024;2023-05-20T08:38:28;96393.69;;;14.61;72.04
4012;BME280;2020;48.682;9.024;2023-05-20T08:40:56;96393.59;;;14.85;72.56
4012;BME280;2020;48.682;9.024;2023-05-20T08:43:22;96391.56;;;15.02;70.30
4012;BME280;2020;48.682;9.024;2023-05-20T08:45:48;96389.81;;;15.09;70.64
4012;BME280;2020;48.682;9.024;2023-05-20T08:48:16;96387.06;;;15.17;71.39
4012;BME280;2020;48.682;9.024;2023-05-20T08:50:44;96395.34;;;15.36;70.51
4012;BME280;2020;48.682;9.024;2023-05-20T08:53:10;96384.16;;;15.49;69.11
4012;BME280;2020;48.682;9.024;2023-05-20T08:55:42;96380.22;;;15.60;69.20
4012;BME280;2020;48.682;9.024;2023-05-20T08:58:08;96380.31;;;15.73;68.07
4012;BME280;2020;48.682;9.024;2023-05-20T09:00:33;96370.59;;;16.24;68.34
4012;BME280;2020;48.682;9.024;2023-05-20T09:02:59;96369.47;;;16.47;65.69
4012;BME280;2020;48.682;9.024;2023-05-20T09:05:25;96369.66;;;16.38;66.86
4012;BME280;2020;48.682;9.024;2023-05-20T09:07:51;96359.91;;;16.26;66.04
4012;BME280;2020;48.682;9.024;2023-05-20T09:10:16;96364.06;;;16.13;66.50
4012;BME280;2020;48.682;9.024;2023-05-20T09:12:41;96367.25;;;16.08;68.56
4012;BME280;2020;48.682;9.024;2023-05-20T09:15:07;96366.09;;;16.18;65.65
4012;BME280;2020;48.682;9.024;2023-05-20T09:17:39;96359.13;;;16.80;66.73
4012;BME280;2020;48.682;9.024;2023-05-20T09:20:06;96350.66;;;16.85;64.13
4012;BME280;2020;48.682;9.024;2023-05-20T09:22:32;96366.13;;;17.29;64.58
4012;BME280;2020;48.682;9.024;2023-05-20T09:24:58;96366.94;;;17.22;62.67
4012;BME280;2020;48.682;9.024;2023-05-20T09:27:23;96362.31;;;17.51;64.71
4012;BME280;2020;48.682;9.024;2023-05-20T09:29:49;96367.75;;;17.43;62.65
4012;BME280;2020;48.682;9.024;2023-05-20T09:32:16;96366.56;;;17.66;61.57
4012;BME280;2020;48.682;9.024;2023-05-20T09:34:45;96353.63;;;17.64;62.75
4012;BME280;2020;48.682;9.024;2023-05-20T09:37:13;96355.00;;;17.53;63.09
4012;BME280;2020;48.682;9.024;2023-05-20T09:40:04;96354.00;;;17.28;62.72
4012;BME280;2020;48.682;9.024;2023-05-20T09:42:37;96351.53;;;17.13;62.56
4012;BME280;2020;48.682;9.024;2023-05-20T09:45:04;96354.38;;;17.11;62.76
4012;BME280;2020;48.682;9.024;2023-05-20T09:47:31;96348.63;;;16.87;61.63
4012;BME280;2020;48.682;9.024;2023-05-20T09:49:56;96343.44;;;17.01;63.77
4012;BME280;2020;48.682;9.024;2023-05-20T09:52:22;96347.47;;;17.03;63.67
4012;BME280;2020;48.682;9.024;2023-05-20T09:54:48;96345.88;;;17.09;63.49
4012;BME280;2020;48.682;9.024;2023-05-20T09:57:15;96357.03;;;17.38;63.19
4012;BME280;2020;48.682;9.024;2023-05-20T09:59:40;96339.41;;;17.18;62.05
4012;BME280;2020;48.682;9.024;2023-05-20T10:02:07;96341.84;;;17.13;61.96
4012;BME280;2020;48.682;9.024;2023-05-20T10:04:35;96343.47;;;17.28;62.82
4012;BME280;2020;48.682;9.024;2023-05-20T10:07:11;96334.56;;;17.69;62.29
4012;BME280;2020;48.682;9.024;2023-05-20T10:10:10;96337.34;;;18.28;62.59
4012;BME280;2020;48.682;9.024;2023-05-20T10:13:09;96328.25;;;18.69;59.94
4012;BME280;2020;48.682;9.024;2023-05-20T10:20:53;96317.47;;;18.32;59.10
4012;BME280;2020;48.682;9.024;2023-05-20T10:23:29;96327.66;;;18.08;59.54
4012;BME280;2020;48.682;9.024;2023-05-20T10:25:55;96330.13;;;18.03;59.84
4012;BME280;2020;48.682;9.024;2023-05-20T10:28:29;96330.53;;;18.00;60.21
4012;BME280;2020;48.682;9.024;2023-05-20T10:30:55;96327.25;;;18.05;59.11
4012;BME280;2020;48.682;9.024;2023-05-20T10:33:20;96333.34;;;17.92;59.27
4012;BME280;2020;48.682;9.024;2023-05-20T10:35:48;96334.88;;;18.33;61.06
4012;BME280;2020;48.682;9.024;2023-05-20T10:38:14;96329.56;;;18.47;59.77
4012;BME280;2020;48.682;9.024;2023-05-20T10:40:39;96323.94;;;18.36;60.93
4012;BME280;2020;48.682;9.024;2023-05-20T10:43:09;96323.97;;;18.23;59.34
4012;BME280;2020;48.682;9.024;2023-05-20T10:45:46;96319.03;;;18.47;59.60
4012;BME280;2020;48.682;9.024;2023-05-20T10:48:19;96305.47;;;18.82;58.48
4012;BME280;2020;48.682;9.024;2023-05-20T10:50:45;96310.03;;;18.68;58.68
4012;BME280;2020;48.682;9.024;2023-05-20T10:53:11;96306.25;;;18.89;59.02
4012;BME280;2020;48.682;9.024;2023-05-20T10:55:39;96309.59;;;18.71;59.09
4012;BME280;2020;48.682;9.024;2023-05-20T10:58:05;96300.91;;;19.03;58.75
4012;BME280;2020;48.682;9.024;2023-05-20T11:00:34;96300.22;;;19.46;57.33
4012;BME280;2020;48.682;9.024;2023-05-20T11:03:00;96292.59;;;19.31;54.71
4012;BME280;2020;48.682;9.024;2023-05-20T11:05:27;96282.50;;;19.72;54.88
4012;BME280;2020;48.682;9.024;2023-05-20T11:08:05;96274.75;;;19.77;53.99
4012;BME280;2020;48.682;9.024;2023-05-20T11:10:32;96281.03;;;19.76;53.92
4012;BME280;2020;48.682;9.024;2023-05-20T11:12:57;96286.03;;;19.84;53.76
4012;BME280;2020;48.682;9.024;2023-05-20T11:15:23;96277.84;;;19.93;52.47
4012;BME280;2020;48.682;9.024;2023-05-20T11:17:55;96282.13;;;20.12;53.53
4012;BME280;2020;48.682;9.024;2023-05-20T11:20:21;96269.50;;;20.14;52.39
4012;BME280;2020;48.682;9.024;2023-05-20T11:22:51;96267.44;;;19.98;54.68
4012;BME280;2020;48.682;9.024;2023-05-20T11:25:17;96269.19;;;20.04;53.40
4012;BME280;2020;48.682;9.024;2023-05-20T11:27:43;96258.91;;;19.77;54.00
4012;BME280;2020;48.682;9.024;2023-05-20T11:30:10;96274.19;;;19.94;54.68
4012;BME280;2020;48.682;9.024;2023-05-20T11:32:37;96285.78;;;19.93;55.00
4012;BME280;2020;48.682;9.024;2023-05-20T11:35:02;96271.38;;;19.88;53.93
4012;BME280;2020;48.682;9.024;2023-05-20T11:37:29;96269.06;;;19.99;52.57
4012;BME280;2020;48.682;9.024;2023-05-20T11:40:06;96255.97;;;20.23;52.28
4012;BME280;2020;48.682;9.024;2023-05-20T11:42:33;96256.72;;;19.93;52.70
4012;BME280;2020;48.682;9.024;2023-05-20T11:44:59;96262.88;;;19.86;52.85
4012;BME280;2020;48.682;9.024;2023-05-20T11:47:25;96266.16;;;19.82;54.03
4012;BME280;2020;48.682;9.024;2023-05-20T11:49:53;96261.00;;;19.87;54.13
4012;BME280;2020;48.682;9.024;2023-05-20T11:52:18;96260.06;;;19.63;55.24
4012;BME280;2020;48.682;9.024;2023-05-20T11:54:43;96258.59;;;19.67;54.36
4012;BME280;2020;48.682;9.024;2023-05-20T11:57:12;96245.91;;;19.76;54.07
4012;BME280;2020;48.682;9.024;2023-05-20T11:59:37;96245.41;;;19.85;55.12
4012;BME280;2020;48.682;9.024;2023-05-20T12:02:03;96245.69;;;20.33;51.04
4012;BME280;2020;48.682;9.024;2023-05-20T12:04:28;96236.03;;;20.88;51.79
4012;BME280;2020;48.682;9.024;2023-05-20T12:06:54;96229.94;;;20.87;49.77
4012;BME280;2020;48.682;9.024;2023-05-20T12:09:19;96231.81;;;21.35;51.64
4012;BME280;2020;48.682;9.024;2023-05-20T12:11:45;96235.63;;;21.62;48.88
4012;BME280;2020;48.682;9.024;2023-05-20T12:14:10;96233.44;;;21.59;50.98
4012;BME280;2020;48.682;9.024;2023-05-20T12:16:36;96230.44;;;21.91;47.40
4012;BME280;2020;48.682;9.024;2023-05-20T12:19:01;96221.78;;;22.08;49.27
4012;BME280;2020;48.682;9.024;2023-05-20T12:21:28;96223.38;;;22.09;48.41
4012;BME280;2020;48.682;9.024;2023-05-20T12:23:54;96211.38;;;22.06;47.25
4012;BME280;2020;48.682;9.024;2023-05-20T12:26:23;96220.91;;;21.90;48.28
4012;BME280;2020;48.682;9.024;2023-05-20T12:28:49;96217.31;;;21.73;48.78
4012;BME280;2020;48.682;9.024;2023-05-20T12:31:15;96214.75;;;22.02;46.96
4012;BME280;2020;48.682;9.024;2023-05-20T12:33:40;96218.19;;;22.43;47.53
4012;BME280;2020;48.682;9.024;2023-05-20T12:36:06;96216.75;;;22.24;46.98
4012;BME280;2020;48.682;9.024;2023-05-20T12:38:31;96216.28;;;22.27;46.28
4012;BME280;2020;48.682;9.024;2023-05-20T12:40:57;96207.47;;;22.09;47.56
4012;BME280;2020;48.682;9.024;2023-05-20T12:43:22;96207.88;;;22.30;48.01
4012;BME280;2020;48.682;9.024;2023-05-20T12:45:48;96211.00;;;22.15;46.03
4012;BME280;2020;48.682;9.024;2023-05-20T12:48:13;96218.94;;;22.27;46.83
4012;BME280;2020;48.682;9.024;2023-05-20T12:50:38;96210.13;;;22.38;47.17
4012;BME280;2020;48.682;9.024;2023-05-20T12:53:03;96190.84;;;22.43;46.06
4012;BME280;2020;48.682;9.024;2023-05-20T12:55:29;96206.06;;;22.18;44.89
4012;BME280;2020;48.682;9.024;2023-05-20T12:57:54;96200.84;;;21.95;46.33
4012;BME280;2020;48.682;9.024;2023-05-20T13:00:20;96192.44;;;21.86;47.17
4012;BME280;2020;48.682;9.024;2023-05-20T13:02:45;96200.38;;;22.27;47.49
4012;BME280;2020;48.682;9.024;2023-05-20T13:05:11;96198.09;;;21.89;47.19
4012;BME280;2020;48.682;9.024;2023-05-20T13:07:37;96213.50;;;21.93;47.31
4012;BME280;2020;48.682;9.024;2023-05-20T13:10:03;96203.03;;;21.74;46.51
4012;BME280;2020;48.682;9.024;2023-05-20T13:12:28;96186.94;;;22.16;47.00
4012;BME280;2020;48.682;9.024;2023-05-20T13:14:54;96188.28;;;22.31;45.78
4012;BME280;2020;48.682;9.024;2023-05-20T13:17:19;96185.72;;;22.36;45.33
4012;BME280;2020;48.682;9.024;2023-05-20T13:19:44;96174.94;;;22.43;46.70
4012;BME280;2020;48.682;9.024;2023-05-20T13:22:10;96175.53;;;22.45;46.77
4012;BME280;2020;48.682;9.024;2023-05-20T13:24:36;96176.44;;;21.93;46.08